Time;durP1;ratioP1;P1;durP2;ratioP2;P2;SDS_P1;SDS_P2;PMS_P1;PMS_P2;Temp;Humidity;BMP_temperature;BMP_pressure;BME280_temperature;BME280_humidity;BME280_pressure;Samples;Min_cycle;Max_cycle;Signal;HPM_P1;HPM_P2
2022/05/10 00:03:55;;;;;;;3.67;2.38;;;19.00;58.40;;;;;;10417041;28;20409;-53
2022/05/10 00:08:56;;;;;;;3.90;2.80;;;19.00;58.50;;;;;;10417146;28;20478;-52
2022/05/10 00:13:57;;;;;;;6.05;3.20;;;18.90;58.40;;;;;;10415797;28;20116;-52
2022/05/10 00:18:57;;;;;;;4.53;2.45;;;18.90;58.40;;;;;;10416500;28;20410;-51
2022/05/10 00:23:58;;;;;;;3.25;2.50;;;18.90;58.40;;;;;;10418506;28;20113;-51
2022/05/10 00:29:00;;;;;;;4.70;2.45;;;18.90;58.50;;;;;;10415887;28;20163;-51
2022/05/10 00:34:02;;;;;;;4.72;3.10;;;18.90;58.50;;;;;;10415979;28;20470;-50
2022/05/10 00:39:03;;;;;;;3.22;2.40;;;18.90;58.50;;;;;;10414623;28;20030;-53
2022/05/10 00:44:51;;;;;;;4.35;3.40;;;18.90;58.50;;;;;;10413966;28;20056;-54
2022/05/10 00:50:28;;;;;;;6.93;2.83;;;18.90;58.40;;;;;;10406287;28;20516;-53
2022/05/10 00:55:44;;;;;;;4.63;2.75;;;18.90;58.40;;;;;;10405523;28;20389;-52
2022/05/10 01:00:45;;;;;;;4.00;2.92;;;18.90;58.40;;;;;;10413802;28;20038;-53
2022/05/10 01:06:21;;;;;;;4.20;2.85;;;18.90;58.50;;;;;;10429848;28;20033;-51
2022/05/10 01:11:29;;;;;;;4.05;2.75;;;18.90;58.60;;;;;;10414322;28;20034;-52
2022/05/10 01:16:30;;;;;;;3.47;2.50;;;18.90;58.50;;;;;;10414259;28;20135;-54
2022/05/10 01:22:00;;;;;;;4.60;2.85;;;18.90;58.50;;;;;;10408509;28;20113;-55
2022/05/10 01:27:50;;;;;;;3.90;2.90;;;18.90;58.50;;;;;;10408357;28;20033;-51
2022/05/10 01:38:26;;;;;;;2.83;2.13;;;18.90;58.60;;;;;;10414097;28;20041;-52
2022/05/10 01:44:05;;;;;;;4.50;3.03;;;18.80;58.50;;;;;;10413752;28;20037;-54
2022/05/10 01:49:39;;;;;;;4.47;2.83;;;18.90;58.60;;;;;;10403755;28;20039;-50
2022/05/10 01:54:40;;;;;;;3.35;2.65;;;18.80;58.60;;;;;;10399039;28;20053;-53
2022/05/10 01:59:49;;;;;;;3.30;2.60;;;18.80;58.70;;;;;;10413049;28;20101;-52
2022/05/10 02:04:53;;;;;;;;;;;18.80;58.80;;;;;;10428225;28;20037;-53
2022/05/10 02:10:15;;;;;;;5.63;2.78;;;18.80;58.80;;;;;;10395424;28;20349;-52
2022/05/10 02:16:00;;;;;;;3.08;2.40;;;18.80;58.70;;;;;;10411381;28;20498;-52
2022/05/10 02:21:12;;;;;;;4.20;3.17;;;18.80;58.70;;;;;;10410110;28;20041;-52
2022/05/10 02:26:22;;;;;;;4.65;2.95;;;18.80;58.80;;;;;;10405542;28;20131;-54
2022/05/10 02:31:25;;;;;;;;;;;18.80;58.70;;;;;;10427548;28;20509;-52
2022/05/10 02:36:26;;;;;;;4.28;3.47;;;18.80;58.70;;;;;;10414509;28;19912;-52
2022/05/10 02:41:27;;;;;;;5.38;2.47;;;18.80;58.70;;;;;;10420508;28;20116;-53
2022/05/10 02:46:28;;;;;;;4.20;3.17;;;18.80;58.70;;;;;;10419695;28;20051;-51
2022/05/10 02:51:29;;;;;;;4.03;2.90;;;18.80;58.80;;;;;;10426817;28;20034;-52
2022/05/10 02:56:30;;;;;;;3.10;2.63;;;18.80;58.80;;;;;;10418362;28;20029;-53
2022/05/10 03:02:09;;;;;;;3.40;2.60;;;18.80;58.80;;;;;;10418280;28;20103;-51
2022/05/10 03:07:11;;;;;;;4.18;3.35;;;18.70;58.80;;;;;;10413868;28;20096;-50
2022/05/10 03:12:12;;;;;;;4.57;3.58;;;18.70;58.90;;;;;;10401650;28;20026;-49
2022/05/10 03:17:13;;;;;;;2.90;2.60;;;18.70;58.90;;;;;;10418655;28;20499;-53
2022/05/10 03:22:13;;;;;;;5.28;3.05;;;18.70;58.90;;;;;;10406989;28;20100;-53
2022/05/10 03:27:16;;;;;;;4.30;2.75;;;18.70;58.90;;;;;;10415423;28;20589;-52
2022/05/10 03:32:17;;;;;;;5.03;3.28;;;18.70;58.90;;;;;;10418258;28;20136;-53
2022/05/10 03:37:17;;;;;;;4.80;3.15;;;18.70;58.80;;;;;;10418158;28;20025;-52
2022/05/10 03:42:19;;;;;;;4.80;3.03;;;18.70;58.80;;;;;;10418083;28;20446;-51
2022/05/10 03:47:23;;;;;;;4.25;2.70;;;18.70;58.80;;;;;;10415007;28;20025;-52
2022/05/10 03:52:24;;;;;;;3.55;2.80;;;18.70;58.80;;;;;;10417484;28;20029;-52
2022/05/10 03:57:25;;;;;;;4.00;2.95;;;18.70;58.90;;;;;;10416389;28;20163;-52
2022/05/10 04:02:26;;;;;;;3.80;2.88;;;18.70;58.90;;;;;;10414871;28;20034;-51
2022/05/10 04:07:27;;;;;;;4.38;3.28;;;18.70;58.90;;;;;;10416953;28;20026;-52
2022/05/10 04:12:27;;;;;;;5.07;3.13;;;18.70;58.80;;;;;;10415137;28;20400;-51
2022/05/10 04:17:28;;;;;;;3.67;3.25;;;18.70;58.90;;;;;;10408268;28;20049;-52
2022/05/10 04:22:29;;;;;;;5.45;3.97;;;18.70;59.00;;;;;;10410891;28;20080;-54
2022/05/10 04:27:29;;;;;;;5.47;4.68;;;18.70;59.10;;;;;;10414356;28;20394;-53
2022/05/10 04:32:30;;;;;;;5.93;5.32;;;18.70;59.80;;;;;;10415122;28;20382;-51
2022/05/10 04:37:31;;;;;;;7.28;6.10;;;18.80;60.40;;;;;;10415648;28;20504;-53
2022/05/10 04:42:32;;;;;;;7.25;6.55;;;18.80;60.10;;;;;;10415813;28;20029;-53
2022/05/10 04:47:32;;;;;;;6.40;5.80;;;18.80;60.00;;;;;;10417377;28;20032;-52
2022/05/10 04:52:33;;;;;;;7.57;6.75;;;18.80;60.10;;;;;;10412503;28;20037;-53
2022/05/10 04:57:39;;;;;;;12.40;7.57;;;18.90;61.90;;;;;;10421959;28;20040;-52
2022/05/10 05:02:40;;;;;;;13.65;7.53;;;19.00;61.60;;;;;;10415034;28;20037;-54
2022/05/10 05:07:41;;;;;;;11.13;7.03;;;19.10;62.80;;;;;;10412922;28;20493;-54
2022/05/10 05:12:42;;;;;;;11.00;7.95;;;19.20;62.80;;;;;;10414161;28;20371;-53
2022/05/10 05:17:42;;;;;;;11.73;6.82;;;19.20;63.20;;;;;;10413491;28;20101;-52
2022/05/10 05:22:43;;;;;;;14.00;7.20;;;19.20;62.70;;;;;;10435030;28;20175;-55
2022/05/10 05:27:44;;;;;;;13.05;7.63;;;19.10;62.70;;;;;;10412888;28;20036;-52
2022/05/10 05:32:45;;;;;;;18.13;8.43;;;19.00;62.40;;;;;;10412357;28;20081;-54
2022/05/10 05:37:46;;;;;;;14.48;7.03;;;18.90;62.40;;;;;;10412835;28;20026;-53
2022/05/10 05:42:48;;;;;;;13.70;6.93;;;18.90;62.70;;;;;;10416657;28;20390;-53
2022/05/10 05:47:49;;;;;;;13.68;6.35;;;18.90;62.60;;;;;;10410821;28;20538;-54
2022/05/10 05:52:52;;;;;;;13.88;7.35;;;18.90;62.20;;;;;;10411197;28;20109;-50
2022/05/10 05:57:52;;;;;;;16.77;7.45;;;18.90;62.20;;;;;;10411923;28;20108;-53
2022/05/10 06:02:54;;;;;;;19.10;8.20;;;18.90;62.50;;;;;;10412993;28;20033;-52
2022/05/10 06:07:55;;;;;;;9.13;6.13;;;18.90;62.50;;;;;;10411991;28;20033;-54
2022/05/10 06:13:01;;;;;;;7.97;6.22;;;18.90;62.50;;;;;;10418930;28;20464;-54
2022/05/10 06:18:04;;;;;;;7.25;6.47;;;18.80;62.30;;;;;;10420588;28;20044;-54
2022/05/10 06:23:05;;;;;;;12.38;6.93;;;18.80;62.10;;;;;;10425539;28;20033;-56
2022/05/10 06:28:06;;;;;;;9.52;6.47;;;18.80;62.20;;;;;;10420073;28;20175;-54
2022/05/10 06:33:06;;;;;;;9.98;7.32;;;18.80;62.60;;;;;;10418304;28;20132;-52
2022/05/10 06:38:16;;;;;;;13.45;6.15;;;18.80;62.00;;;;;;10419400;28;20101;-53
2022/05/10 06:43:17;;;;;;;8.38;7.25;;;18.80;62.00;;;;;;10419772;28;20725;-54
2022/05/10 06:48:18;;;;;;;8.40;6.38;;;18.80;61.80;;;;;;10419091;28;20029;-53
2022/05/10 06:53:18;;;;;;;10.70;6.55;;;18.80;61.70;;;;;;10418671;28;20464;-52
2022/05/10 06:58:19;;;;;;;9.48;7.00;;;18.80;61.60;;;;;;10418002;28;20044;-52
2022/05/10 07:03:33;;;;;;;9.63;6.82;;;18.80;61.60;;;;;;10417867;28;20119;-52
2022/05/10 07:08:34;;;;;;;10.30;7.30;;;18.80;61.60;;;;;;10418410;28;20056;-53
2022/05/10 07:13:36;;;;;;;8.65;5.82;;;18.80;61.60;;;;;;10417252;28;20061;-53
2022/05/10 07:18:37;;;;;;;7.78;6.05;;;18.80;61.60;;;;;;10415299;28;20030;-54
2022/05/10 07:23:38;;;;;;;11.23;8.73;;;18.80;61.60;;;;;;10415806;28;20049;-52
2022/05/10 07:28:38;;;;;;;15.73;9.15;;;18.80;61.40;;;;;;10408548;28;20501;-54
2022/05/10 07:33:39;;;;;;;14.10;8.50;;;18.80;61.50;;;;;;10407338;28;20545;-51
2022/05/10 07:38:40;;;;;;;12.98;8.60;;;18.80;61.50;;;;;;10413371;28;20052;-52
2022/05/10 07:43:41;;;;;;;11.63;8.07;;;18.80;61.60;;;;;;10413000;28;20044;-53
2022/05/10 07:48:41;;;;;;;10.90;8.82;;;18.80;61.70;;;;;;10410060;28;20032;-53
2022/05/10 07:53:42;;;;;;;11.60;8.55;;;18.80;61.80;;;;;;10412509;28;20533;-53
2022/05/10 07:58:43;;;;;;;12.15;8.98;;;18.90;61.90;;;;;;10414829;28;20043;-54
2022/05/10 08:03:43;;;;;;;14.27;9.05;;;18.90;61.90;;;;;;10415952;28;20486;-53
2022/05/10 08:08:44;;;;;;;10.35;7.43;;;18.90;61.90;;;;;;10415646;28;20106;-54
2022/05/10 08:13:45;;;;;;;10.05;7.80;;;18.90;61.90;;;;;;10414064;28;20037;-54
2022/05/10 08:18:48;;;;;;;8.00;6.72;;;18.90;61.80;;;;;;10413070;28;20112;-53
2022/05/10 08:23:52;;;;;;;11.27;6.97;;;18.90;61.80;;;;;;10413695;28;20029;-55
2022/05/10 08:28:52;;;;;;;10.25;7.63;;;18.90;61.90;;;;;;10401889;28;20052;-55
2022/05/10 08:33:53;;;;;;;9.75;7.22;;;18.90;61.90;;;;;;10412052;28;20116;-54
2022/05/10 08:38:54;;;;;;;9.05;6.85;;;18.90;61.90;;;;;;10411689;28;20121;-54
2022/05/10 08:44:17;;;;;;;8.20;7.40;;;18.90;61.80;;;;;;10412750;28;20466;-54
2022/05/10 08:49:45;;;;;;;8.35;6.35;;;18.90;61.80;;;;;;10417498;28;20041;-51
2022/05/10 08:54:46;;;;;;;8.13;6.30;;;18.90;61.80;;;;;;10423811;28;20397;-52
2022/05/10 09:00:33;;;;;;;10.50;7.32;;;18.90;61.90;;;;;;10414381;28;20108;-54
2022/05/10 09:05:39;;;;;;;7.40;6.35;;;18.90;61.90;;;;;;10412672;28;20072;-51
2022/05/10 09:10:44;;;;;;;10.30;6.60;;;18.90;62.00;;;;;;10408822;28;20124;-54
2022/05/10 09:16:09;;;;;;;8.73;6.68;;;18.90;61.90;;;;;;10429320;28;20060;-55
2022/05/10 09:21:20;;;;;;;7.82;6.50;;;18.90;62.00;;;;;;10413864;28;20108;-54
2022/05/10 09:26:24;;;;;;;8.85;6.10;;;19.00;62.10;;;;;;10429376;28;20029;-56
2022/05/10 09:36:55;;;;;;;6.55;5.75;;;19.00;62.00;;;;;;10413258;28;20037;-52
2022/05/10 09:41:56;;;;;;;7.80;5.75;;;19.00;61.90;;;;;;10395422;28;20028;-52
2022/05/10 09:47:15;;;;;;;7.80;4.85;;;19.10;61.90;;;;;;10412577;28;20037;-53
2022/05/10 09:52:25;;;;;;;6.38;4.75;;;19.10;61.80;;;;;;10406114;28;20033;-52
2022/05/10 09:57:48;;;;;;;4.90;4.40;;;19.10;61.70;;;;;;10409755;28;20026;-53
2022/05/10 10:02:57;;;;;;;6.70;5.97;;;19.10;61.70;;;;;;10411348;28;20595;-54
2022/05/10 10:07:58;;;;;;;5.93;5.20;;;19.10;61.70;;;;;;10412368;28;20036;-52
2022/05/10 10:13:19;;;;;;;6.70;5.22;;;19.10;61.70;;;;;;10412249;28;20128;-52
2022/05/10 10:19:24;;;;;;;6.47;5.03;;;19.20;61.70;;;;;;10411892;28;20029;-49
2022/05/10 10:24:36;;;;;;;5.57;5.07;;;19.20;61.60;;;;;;10323965;28;20030;-54
2022/05/10 10:29:46;;;;;;;7.03;5.47;;;19.20;61.50;;;;;;10403129;28;20072;-55
2022/05/10 10:35:20;;;;;;;5.80;4.78;;;19.20;61.60;;;;;;10415117;28;20041;-52
2022/05/10 10:40:37;;;;;;;5.28;4.70;;;19.20;61.50;;;;;;10405113;28;20104;-55
2022/05/10 10:45:54;;;;;;;8.85;5.28;;;19.20;61.50;;;;;;10410067;28;20413;-56
2022/05/10 10:50:56;;;;;;;6.80;4.90;;;19.20;61.60;;;;;;10409662;28;20470;-54
2022/05/10 10:56:50;;;;;;;7.57;5.15;;;19.30;61.60;;;;;;10412543;28;20092;-53
2022/05/10 11:02:37;;;;;;;6.10;5.07;;;19.40;61.70;;;;;;10418726;28;20029;-52
2022/05/10 11:07:59;;;;;;;4.78;4.28;;;19.40;61.60;;;;;;10409059;28;20037;-52
2022/05/10 11:13:26;;;;;;;5.72;4.50;;;19.40;61.50;;;;;;10416827;28;20543;-54
2022/05/10 11:19:01;;;;;;;5.35;4.38;;;19.30;61.50;;;;;;10419011;28;20036;-55
2022/05/10 11:24:56;;;;;;;6.95;5.15;;;19.40;61.40;;;;;;10416573;28;20512;-52
2022/05/10 11:30:14;;;;;;;6.32;4.65;;;19.30;61.40;;;;;;10418641;28;20045;-54
2022/05/10 11:36:02;;;;;;;6.40;4.60;;;19.40;61.50;;;;;;10407389;28;20060;-55
2022/05/10 11:41:26;;;;;;;7.05;5.10;;;19.40;61.50;;;;;;10407448;28;20033;-56
2022/05/10 11:47:05;;;;;;;6.53;5.18;;;19.40;61.50;;;;;;10408937;28;20041;-53
2022/05/10 11:52:53;;;;;;;7.60;5.18;;;19.40;61.50;;;;;;10426086;28;20379;-52
2022/05/10 11:58:00;;;;;;;7.15;4.68;;;19.40;61.50;;;;;;10413101;28;20113;-54
2022/05/10 12:03:08;;;;;;;8.00;5.22;;;19.40;61.60;;;;;;10415712;28;20768;-55
2022/05/10 12:08:19;;;;;;;7.13;5.50;;;19.40;61.60;;;;;;10415769;28;20033;-54
2022/05/10 12:24:43;;;;;;;8.77;5.40;;;19.40;61.70;;;;;;10407081;28;20034;-55
2022/05/10 12:29:48;;;;;;;6.95;5.57;;;19.30;61.60;;;;;;10415717;28;20440;-54
2022/05/10 12:34:56;;;;;;;10.82;5.57;;;19.40;61.70;;;;;;10413003;28;20493;-56
2022/05/10 12:40:10;;;;;;;7.40;5.25;;;19.40;61.70;;;;;;10412174;28;20029;-55
2022/05/10 12:45:32;;;;;;;7.53;5.35;;;19.40;61.70;;;;;;10413638;28;20029;-53
2022/05/10 12:51:17;;;;;;;7.80;5.72;;;19.40;61.70;;;;;;10414282;28;20037;-53
2022/05/10 12:56:31;;;;;;;6.57;5.28;;;19.40;61.80;;;;;;10413944;28;20041;-54
2022/05/10 13:01:35;;;;;;;8.45;6.25;;;19.40;61.60;;;;;;10411502;28;20112;-56
2022/05/10 13:07:01;;;;;;;7.88;6.35;;;19.40;61.50;;;;;;10410690;28;20482;-55
2022/05/10 13:12:21;;;;;;;8.48;6.10;;;19.60;60.90;;;;;;10408357;28;20041;-56
2022/05/10 13:17:31;;;;;;;10.25;6.40;;;19.70;60.50;;;;;;10412884;28;20276;-55
2022/05/10 13:22:32;;;;;;;9.77;6.93;;;19.70;60.20;;;;;;10416744;28;20043;-56
2022/05/10 13:27:39;;;;;;;9.77;5.70;;;19.70;60.10;;;;;;10408951;28;20036;-53
2022/05/10 13:32:44;;;;;;;10.05;6.47;;;19.80;60.00;;;;;;10420947;28;20137;-55
2022/05/10 13:37:54;;;;;;;9.80;6.38;;;19.80;60.10;;;;;;10412080;28;20493;-55
2022/05/10 13:43:34;;;;;;;8.40;7.25;;;20.00;59.50;;;;;;10413143;28;20037;-54
2022/05/10 13:48:45;;;;;;;9.48;8.48;;;20.10;58.80;;;;;;10409458;28;20031;-57
2022/05/10 13:54:22;;;;;;;13.63;8.43;;;20.30;58.20;;;;;;10395614;28;20029;-56
2022/05/10 13:59:31;;;;;;;10.13;8.05;;;20.40;58.30;;;;;;10389140;28;20037;-53
2022/05/10 14:04:32;;;;;;;11.50;6.93;;;20.40;58.40;;;;;;10409852;28;20041;-56
2022/05/10 14:09:40;;;;;;;11.20;8.48;;;20.40;58.10;;;;;;10412228;28;20460;-53
2022/05/10 14:14:41;;;;;;;12.90;7.97;;;20.40;58.00;;;;;;10411780;28;20052;-55
2022/05/10 14:19:49;;;;;;;13.45;8.50;;;20.40;58.40;;;;;;10412023;28;20045;-57
2022/05/10 14:24:52;;;;;;;13.90;10.10;;;20.30;58.90;;;;;;10420710;28;20037;-56
2022/05/10 14:29:58;;;;;;;14.65;7.20;;;20.20;59.50;;;;;;10409297;28;20041;-56
2022/05/10 14:35:06;;;;;;;15.73;7.78;;;20.20;59.80;;;;;;10435419;28;20033;-56
2022/05/10 14:40:27;;;;;;;11.00;7.25;;;20.20;60.40;;;;;;10420791;28;20120;-58
2022/05/10 14:45:42;;;;;;;8.50;7.32;;;20.40;59.60;;;;;;10423948;28;20033;-57
2022/05/10 14:50:43;;;;;;;13.65;8.75;;;20.30;59.90;;;;;;10417657;28;20037;-58
2022/05/10 14:56:10;;;;;;;16.35;8.45;;;20.30;59.80;;;;;;10412393;28;20022;-57
2022/05/10 15:01:35;;;;;;;31.80;9.45;;;20.30;59.90;;;;;;10416574;28;20029;-58
2022/05/10 15:06:38;;;;;;;21.13;9.20;;;20.20;59.50;;;;;;10409167;28;20044;-57
2022/05/10 15:16:59;;;;;;;22.42;8.77;;;20.00;60.70;;;;;;10411529;28;20064;-57
2022/05/10 15:22:00;;;;;;;15.70;8.00;;;19.90;60.70;;;;;;10418812;28;20440;-58
2022/05/10 15:27:04;;;;;;;12.93;6.57;;;19.80;61.00;;;;;;10418499;28;20120;-58
2022/05/10 15:32:06;;;;;;;12.38;6.70;;;19.80;61.30;;;;;;10404167;28;20385;-58
2022/05/10 15:37:08;;;;;;;15.02;6.18;;;19.70;61.30;;;;;;10417105;28;20499;-57
2022/05/10 15:42:22;;;;;;;10.13;6.55;;;19.70;61.30;;;;;;10404838;28;20029;-58
2022/05/10 15:47:34;;;;;;;9.07;5.05;;;19.70;61.40;;;;;;10412401;28;20044;-57
2022/05/10 15:52:35;;;;;;;9.65;5.88;;;19.70;61.40;;;;;;10430238;28;20033;-58
2022/05/10 15:57:36;;;;;;;9.68;5.75;;;19.70;61.40;;;;;;10416137;28;20113;-57
2022/05/10 16:02:37;;;;;;;9.13;4.70;;;19.60;62.00;;;;;;10432915;28;20086;-57
2022/05/10 16:07:37;;;;;;;12.43;4.95;;;19.60;61.40;;;;;;10417016;28;20117;-55
2022/05/10 16:12:39;;;;;;;9.93;3.72;;;19.60;60.90;;;;;;10408401;28;20033;-58
2022/05/10 16:17:40;;;;;;;8.95;4.28;;;19.80;59.60;;;;;;10396252;28;20373;-58
2022/05/10 16:22:41;;;;;;;9.43;4.47;;;19.90;59.30;;;;;;10408131;28;20105;-58
2022/05/10 16:33:05;;;;;;;9.57;4.35;;;20.20;58.50;;;;;;10429034;28;20049;-59
2022/05/10 16:38:08;;;;;;;11.38;5.38;;;20.10;58.60;;;;;;10414924;28;20105;-57
2022/05/10 16:43:08;;;;;;;9.00;3.88;;;20.00;58.70;;;;;;10414431;28;20037;-58
2022/05/10 16:48:10;;;;;;;9.18;3.47;;;20.00;58.60;;;;;;10411877;28;20036;-58
2022/05/10 16:53:11;;;;;;;6.97;3.65;;;20.00;58.10;;;;;;10407347;28;20026;-58
2022/05/10 16:58:11;;;;;;;5.68;2.72;;;19.90;57.90;;;;;;10418917;28;20092;-57
2022/05/10 17:03:12;;;;;;;8.18;3.22;;;19.80;57.90;;;;;;10410021;28;20053;-57
2022/05/10 17:08:15;;;;;;;5.75;2.80;;;19.80;57.80;;;;;;10414393;28;20117;-57
2022/05/10 17:13:16;;;;;;;6.78;3.25;;;19.80;57.80;;;;;;10413299;28;20026;-55
2022/05/10 17:18:17;;;;;;;5.75;2.38;;;19.80;57.60;;;;;;10414279;28;20091;-56
2022/05/10 17:23:17;;;;;;;6.30;2.75;;;19.70;57.70;;;;;;10397811;28;20034;-55
2022/05/10 17:28:28;;;;;;;8.43;3.08;;;19.70;57.90;;;;;;10429190;28;20418;-56
2022/05/10 17:33:29;;;;;;;4.38;2.05;;;19.70;58.00;;;;;;10412754;28;20128;-55
2022/05/10 17:38:29;;;;;;;7.15;2.83;;;19.60;58.10;;;;;;10413835;28;20061;-55
2022/05/10 17:43:33;;;;;;;5.00;2.35;;;19.70;58.30;;;;;;10428890;28;20080;-55
2022/05/10 17:48:35;;;;;;;6.82;2.63;;;19.70;58.30;;;;;;10412557;28;20025;-55
2022/05/10 17:53:39;;;;;;;7.15;3.20;;;19.70;58.30;;;;;;10412221;28;20295;-55
2022/05/10 17:58:40;;;;;;;5.78;2.65;;;19.70;57.90;;;;;;10411772;28;20029;-55
2022/05/10 18:03:43;;;;;;;7.40;3.10;;;19.70;57.80;;;;;;10411775;28;20117;-55
2022/05/10 18:08:45;;;;;;;7.28;3.13;;;19.70;58.10;;;;;;10411655;28;20059;-56
2022/05/10 18:13:46;;;;;;;5.53;2.58;;;19.80;58.30;;;;;;10411693;28;20030;-55
2022/05/10 18:18:47;;;;;;;5.70;2.92;;;19.70;58.60;;;;;;10412782;28;20033;-54
2022/05/10 18:23:48;;;;;;;8.82;3.35;;;19.70;58.90;;;;;;10422191;28;20048;-56
2022/05/10 18:28:49;;;;;;;5.85;2.90;;;19.70;59.00;;;;;;10410939;28;20091;-55
2022/05/10 18:33:50;;;;;;;12.77;4.47;;;19.70;58.90;;;;;;10410211;28;20037;-56
2022/05/10 18:38:51;;;;;;;6.70;3.65;;;19.70;59.30;;;;;;10410948;28;20543;-57
2022/05/10 18:43:52;;;;;;;18.10;5.18;;;19.70;59.10;;;;;;10422164;28;20084;-56
2022/05/10 18:48:52;;;;;;;14.88;4.22;;;19.70;58.40;;;;;;10376279;28;20112;-57
2022/05/10 18:53:53;;;;;;;18.20;4.05;;;19.70;58.60;;;;;;10403118;28;20418;-56
2022/05/10 18:58:54;;;;;;;12.85;4.68;;;19.60;58.40;;;;;;10384870;28;20045;-55
2022/05/10 19:03:54;;;;;;;12.73;3.70;;;19.70;58.60;;;;;;10399787;28;20053;-57
2022/05/10 19:08:55;;;;;;;10.20;3.42;;;19.70;58.50;;;;;;10403290;28;20065;-56
2022/05/10 19:13:57;;;;;;;14.32;4.15;;;19.70;58.70;;;;;;10395326;28;20467;-56
2022/05/10 19:18:57;;;;;;;11.52;3.45;;;19.70;58.70;;;;;;10404486;28;20027;-57
2022/05/10 19:23:58;;;;;;;9.25;3.22;;;19.70;58.80;;;;;;10386820;28;20053;-57
2022/05/10 19:28:58;;;;;;;8.65;3.05;;;19.70;58.90;;;;;;10410227;28;20081;-56
2022/05/10 19:34:00;;;;;;;7.13;3.10;;;19.70;59.50;;;;;;10399503;28;20061;-58
2022/05/10 19:39:04;;;;;;;7.13;3.00;;;19.70;59.00;;;;;;10433052;28;20052;-58
2022/05/10 19:44:06;;;;;;;4.78;2.72;;;19.70;59.00;;;;;;10413277;28;20516;-56
2022/05/10 19:49:08;;;;;;;5.20;2.70;;;19.60;59.00;;;;;;10416216;28;20037;-56
2022/05/10 19:54:10;;;;;;;6.25;2.78;;;19.70;58.90;;;;;;10422601;28;20030;-57
2022/05/10 19:59:11;;;;;;;6.32;2.92;;;19.70;58.90;;;;;;10432948;28;20018;-57
2022/05/10 20:09:31;;;;;;;5.25;2.05;;;19.60;58.80;;;;;;10416663;28;20037;-57
2022/05/10 20:14:32;;;;;;;5.25;2.70;;;19.60;58.80;;;;;;10432555;28;20048;-56
2022/05/10 20:19:33;;;;;;;5.05;2.60;;;19.60;58.80;;;;;;10415117;28;20064;-57
2022/05/10 20:24:35;;;;;;;4.18;2.40;;;19.60;58.90;;;;;;10410514;28;20098;-57
2022/05/10 20:29:35;;;;;;;6.28;2.63;;;19.60;58.90;;;;;;10406684;28;20107;-57
2022/05/10 20:34:36;;;;;;;7.60;2.45;;;19.60;58.90;;;;;;10414457;28;20077;-57
2022/05/10 20:39:37;;;;;;;8.15;2.33;;;19.60;58.90;;;;;;10416273;28;20056;-56
2022/05/10 20:44:37;;;;;;;4.85;2.08;;;19.60;58.90;;;;;;10414413;28;20605;-57
2022/05/10 20:49:38;;;;;;;6.90;2.65;;;19.60;59.00;;;;;;10427341;28;20128;-58
2022/05/10 20:54:39;;;;;;;5.45;2.00;;;19.60;59.00;;;;;;10390877;28;20442;-56
2022/05/10 20:59:39;;;;;;;4.22;1.95;;;19.60;59.10;;;;;;10426645;28;20037;-55
2022/05/10 21:04:40;;;;;;;4.05;2.28;;;19.60;59.10;;;;;;10430720;28;20501;-57
2022/05/10 21:09:40;;;;;;;8.70;2.95;;;19.60;59.10;;;;;;10414968;28;20033;-57
2022/05/10 21:14:41;;;;;;;5.40;2.33;;;19.50;59.10;;;;;;10430114;28;20057;-56
2022/05/10 21:19:42;;;;;;;3.80;1.95;;;19.50;59.10;;;;;;10414393;28;20121;-57
2022/05/10 21:24:43;;;;;;;2.78;1.67;;;19.60;59.30;;;;;;10418356;28;20540;-57
2022/05/10 21:35:04;;;;;;;4.18;1.98;;;19.50;59.30;;;;;;10413284;28;20033;-56
2022/05/10 21:40:06;;;;;;;4.55;2.63;;;19.50;59.30;;;;;;10413940;28;20029;-56
2022/05/10 21:45:09;;;;;;;2.47;1.60;;;19.50;59.40;;;;;;10412217;28;20494;-56
2022/05/10 21:50:20;;;;;;;4.85;1.90;;;19.50;59.40;;;;;;10412158;28;20068;-57
2022/05/10 21:55:21;;;;;;;2.28;1.45;;;19.50;59.50;;;;;;10404582;28;20033;-57
2022/05/10 22:00:32;;;;;;;3.25;1.75;;;19.50;59.50;;;;;;10412943;28;20029;-56
2022/05/10 22:05:35;;;;;;;3.08;1.90;;;19.50;59.50;;;;;;10428579;28;20036;-56
2022/05/10 22:10:36;;;;;;;2.42;1.75;;;19.50;59.60;;;;;;10413591;28;20044;-56
2022/05/10 22:15:37;;;;;;;2.60;1.60;;;19.50;59.60;;;;;;10411939;28;20033;-56
2022/05/10 22:20:37;;;;;;;3.67;1.73;;;19.50;59.80;;;;;;10411626;28;20527;-56
2022/05/10 22:25:38;;;;;;;5.75;1.90;;;19.50;59.80;;;;;;10412337;28;20025;-57
2022/05/10 22:30:39;;;;;;;3.90;2.67;;;19.50;59.80;;;;;;10394949;28;20073;-55
2022/05/10 22:35:39;;;;;;;2.53;1.58;;;19.50;59.80;;;;;;10412680;28;20029;-57
2022/05/10 22:40:45;;;;;;;3.45;1.35;;;19.50;59.80;;;;;;10411178;28;20060;-56
2022/05/10 22:45:46;;;;;;;2.63;1.70;;;19.50;59.90;;;;;;10412633;28;20057;-57
2022/05/10 22:50:47;;;;;;;2.95;1.88;;;19.50;59.90;;;;;;10409486;28;20074;-56
2022/05/10 22:55:48;;;;;;;3.58;1.98;;;19.50;59.90;;;;;;10410768;28;20531;-57
2022/05/10 23:00:49;;;;;;;3.58;2.03;;;19.50;60.00;;;;;;10418711;28;20061;-56
2022/05/10 23:05:49;;;;;;;4.30;1.95;;;19.50;60.00;;;;;;10434936;28;20022;-56
2022/05/10 23:10:50;;;;;;;2.22;1.60;;;19.50;60.00;;;;;;10418254;28;20113;-57
2022/05/10 23:15:51;;;;;;;3.05;1.98;;;19.50;60.10;;;;;;10418032;28;20018;-56
2022/05/10 23:20:52;;;;;;;2.25;1.33;;;19.50;60.10;;;;;;10418272;28;20060;-57
2022/05/10 23:25:53;;;;;;;2.15;1.40;;;19.40;60.10;;;;;;10419087;28;20068;-56
2022/05/10 23:30:53;;;;;;;2.80;1.60;;;19.50;60.10;;;;;;10433925;28;20080;-55
2022/05/10 23:35:57;;;;;;;3.63;1.85;;;19.50;60.20;;;;;;10418693;28;20029;-57
2022/05/10 23:40:58;;;;;;;2.72;1.27;;;19.40;60.10;;;;;;10400828;28;20051;-57
2022/05/10 23:45:59;;;;;;;3.95;1.85;;;19.50;60.20;;;;;;10418221;28;20041;-56
2022/05/10 23:50:59;;;;;;;2.72;1.98;;;19.50;60.30;;;;;;10416490;28;20025;-56
2022/05/10 23:56:06;;;;;;;3.58;1.38;;;19.40;60.20;;;;;;10416727;28;20061;-57
